Time,TemperatureF,DewpointF,PressureIn,WindDirection,WindDirectionDegrees,WindSpeedMPH,WindSpeedGustMPH,Humidity,HourlyPrecipIn,Conditions,Clouds,dailyrainin,SoftwareType,DateUTC
2013-02-14 00:00:00,26.5,23.4,29.94,SW,218,0.0,0.0,88,0.00,,,0.00,WeatherCatV1.02B3,2013-02-14 05:00:00,
2013-02-14 00:01:00,26.4,23.3,29.94,SW,218,0.0,0.0,88,0.00,,,0.00,WeatherCatV1.02B3,2013-02-14 05:01:00,
2013-02-14 00:02:00,26.4,23.3,29.95,SW,218,0.0,0.0,88,0.00,,,0.00,WeatherCatV1.02B3,2013-02-14 05:02:00,
2013-02-14 00:07:00,26.3,23.2,29.95,SW,218,0.0,0.0,88,0.00,,,0.00,WeatherCatV1.02B3,2013-02-14 05:07:00,
2013-02-14 00:12:00,26.2,23.1,29.95,SW,218,0.0,0.0,88,0.00,,,0.00,WeatherCatV1.02B3,2013-02-14 05:12:00,
2013-02-14 00:17:00,26.0,22.9,29.95,SW,218,0.0,0.0,88,0.00,,,0.00,WeatherCatV1.02B3,2013-02-14 05:17:00,
2013-02-14 00:22:00,25.9,22.8,29.95,SW,218,0.0,0.0,88,0.00,,,0.00,WeatherCatV1.02B3,2013-02-14 05:22:00,
2013-02-14 00:27:00,25.8,22.7,29.95,SW,218,0.0,0.0,88,0.00,,,0.00,WeatherCatV1.02B3,2013-02-14 05:27:00,
2013-02-14 00:32:00,25.7,22.6,29.95,SW,218,0.0,0.0,88,0.00,,,0.00,WeatherCatV1.02B3,2013-02-14 05:32:00,
2013-02-14 00:37:00,25.6,22.5,29.95,SW,218,0.0,0.0,88,0.00,,,0.00,WeatherCatV1.02B3,2013-02-14 05:37:00,
2013-02-14 00:42:00,25.5,22.5,29.95,SW,218,0.0,0.0,88,0.00,,,0.00,WeatherCatV1.02B3,2013-02-14 05:42:00,
2013-02-14 00:47:00,25.5,22.5,29.95,SW,218,0.0,0.0,88,0.00,,,0.00,WeatherCatV1.02B3,2013-02-14 05:47:00,
2013-02-14 00:52:00,25.4,22.4,29.95,SW,218,0.0,0.0,88,0.00,,,0.00,WeatherCatV1.02B3,2013-02-14 05:52:00,
2013-02-14 00:57:00,25.3,22.5,29.95,SW,218,0.0,0.0,89,0.00,,,0.00,WeatherCatV1.02B3,2013-02-14 05:57:00,
2013-02-14 01:02:00,25.2,22.4,29.95,SW,218,0.0,0.0,89,0.00,,,0.00,WeatherCatV1.02B3,2013-02-14 06:02:00,
2013-02-14 01:07:00,25.2,22.2,29.95,SW,218,0.0,0.0,88,0.00,,,0.00,WeatherCatV1.02B3,2013-02-14 06:07:00,
2013-02-14 01:12:00,25.2,22.4,29.95,SW,218,0.0,0.0,89,0.00,,,0.00,WeatherCatV1.02B3,2013-02-14 06:12:00,
2013-02-14 01:17:00,25.1,22.3,29.95,SW,218,0.0,0.0,89,0.00,,,0.00,WeatherCatV1.02B3,2013-02-14 06:17:00,
2013-02-14 01:22:00,25.1,22.3,29.95,SW,218,0.0,0.0,89,0.00,,,0.00,WeatherCatV1.02B3,2013-02-14 06:22:00,
2013-02-14 01:27:00,25.0,22.2,29.95,SW,218,0.0,0.0,89,0.00,,,0.00,WeatherCatV1.02B3,2013-02-14 06:27:00,
2013-02-14 01:30:00,25.2,22.4,29.95,SW,218,0.0,0.0,89,0.00,,,0.00,WeatherCatV1.02B3,2013-02-14 06:30:00,
2013-02-14 01:35:00,25.3,22.5,29.95,SW,218,0.0,0.0,89,0.00,,,0.00,WeatherCatV1.02B3,2013-02-14 06:35:00,
2013-02-14 01:40:00,25.2,22.4,29.95,SW,218,0.0,0.0,89,0.00,,,0.00,WeatherCatV1.02B3,2013-02-14 06:40:00,
2013-02-14 01:45:00,25.2,22.4,29.95,SW,218,0.0,0.0,89,0.00,,,0.00,WeatherCatV1.02B3,2013-02-14 06:45:00,
2013-02-14 01:50:00,25.6,22.8,29.95,SSW,205,0.0,0.0,89,0.00,,,0.00,WeatherCatV1.02B3,2013-02-14 06:50:00,
2013-02-14 01:55:00,26.1,23.3,29.95,SSW,203,0.0,1.0,89,0.00,,,0.00,WeatherCatV1.02B3,2013-02-14 06:55:00,
2013-02-14 02:00:00,26.2,23.4,29.95,SSW,203,0.0,0.0,89,0.00,,,0.00,WeatherCatV1.02B3,2013-02-14 07:00:00,
2013-02-14 02:05:00,26.5,23.7,29.95,ESE,122,0.0,3.0,89,0.00,,,0.00,WeatherCatV1.02B3,2013-02-14 07:05:00,
2013-02-14 02:10:00,26.6,23.8,29.95,ESE,122,0.0,1.0,89,0.00,,,0.00,WeatherCatV1.02B3,2013-02-14 07:10:00,
2013-02-14 02:15:00,26.8,24.0,29.95,ESE,121,0.0,2.0,89,0.00,,,0.00,WeatherCatV1.02B3,2013-02-14 07:15:00,
2013-02-14 02:20:00,26.8,24.0,29.95,ESE,121,0.0,0.0,89,0.00,,,0.00,WeatherCatV1.02B3,2013-02-14 07:20:00,
2013-02-14 02:25:00,26.8,24.0,29.95,ESE,121,0.0,1.0,89,0.00,,,0.00,WeatherCatV1.02B3,2013-02-14 07:25:00,
2013-02-14 02:30:00,26.8,24.0,29.95,ESE,106,0.0,0.0,89,0.00,,,0.00,WeatherCatV1.02B3,2013-02-14 07:30:00,
2013-02-14 02:35:00,26.9,24.1,29.95,ESE,109,0.0,0.0,89,0.00,,,0.00,WeatherCatV1.02B3,2013-02-14 07:35:00,
2013-02-14 02:40:00,26.9,24.1,29.95,SSE,149,1.0,2.0,89,0.00,,,0.00,WeatherCatV1.02B3,2013-02-14 07:40:00,
2013-02-14 02:45:00,27.0,24.2,29.95,SSE,149,0.0,1.0,89,0.00,,,0.00,WeatherCatV1.02B3,2013-02-14 07:45:00,
2013-02-14 02:50:00,27.0,23.9,29.95,SSE,149,0.0,1.0,88,0.00,,,0.00,WeatherCatV1.02B3,2013-02-14 07:50:00,
2013-02-14 02:55:00,27.0,23.9,29.95,SSE,149,0.0,0.0,88,0.00,,,0.00,WeatherCatV1.02B3,2013-02-14 07:55:00,
2013-02-14 03:00:00,27.0,23.9,29.95,SSE,149,0.0,2.0,88,0.00,,,0.00,WeatherCatV1.02B3,2013-02-14 08:00:00,
2013-02-14 03:05:00,27.0,23.9,29.96,SE,135,1.0,2.0,88,0.00,,,0.00,WeatherCatV1.02B3,2013-02-14 08:05:00,
2013-02-14 03:10:00,27.1,24.0,29.95,SE,135,0.0,0.0,88,0.00,,,0.00,WeatherCatV1.02B3,2013-02-14 08:10:00,
2013-02-14 03:15:00,27.1,24.0,29.95,East,96,0.0,2.0,88,0.00,,,0.00,WeatherCatV1.02B3,2013-02-14 08:15:00,
2013-02-14 03:20:00,27.1,24.0,29.96,East,96,0.0,2.0,88,0.00,,,0.00,WeatherCatV1.02B3,2013-02-14 08:20:00,
2013-02-14 03:25:00,27.2,24.1,29.95,ESE,117,0.0,0.0,88,0.00,,,0.00,WeatherCatV1.02B3,2013-02-14 08:25:00,
2013-02-14 03:30:00,27.2,24.1,29.95,ESE,117,0.0,2.0,88,0.00,,,0.00,WeatherCatV1.02B3,2013-02-14 08:30:00,
2013-02-14 03:35:00,27.2,23.9,29.95,ESE,117,1.0,2.0,87,0.00,,,0.00,WeatherCatV1.02B3,2013-02-14 08:35:00,
2013-02-14 03:40:00,27.2,23.9,29.95,ESE,117,0.0,0.0,87,0.00,,,0.00,WeatherCatV1.02B3,2013-02-14 08:40:00,
2013-02-14 03:45:00,27.2,23.9,29.95,ESE,117,0.0,2.0,87,0.00,,,0.00,WeatherCatV1.02B3,2013-02-14 08:45:00,
2013-02-14 03:50:00,27.2,23.9,29.95,ESE,117,0.0,1.0,87,0.00,,,0.00,WeatherCatV1.02B3,2013-02-14 08:50:00,
2013-02-14 03:55:00,27.3,24.0,29.95,ESE,117,1.0,2.0,87,0.00,,,0.00,WeatherCatV1.02B3,2013-02-14 08:55:00,
2013-02-14 04:00:00,27.3,24.0,29.95,ESE,117,0.0,2.0,87,0.00,,,0.00,WeatherCatV1.02B3,2013-02-14 09:00:00,
2013-02-14 04:05:00,27.3,24.0,29.95,ESE,115,0.0,1.0,87,0.00,,,0.00,WeatherCatV1.02B3,2013-02-14 09:05:00,
2013-02-14 04:10:00,27.4,24.0,29.95,ESE,116,0.0,1.0,87,0.00,,,0.00,WeatherCatV1.02B3,2013-02-14 09:10:00,
2013-02-14 04:15:00,27.5,24.1,29.95,ESE,113,1.0,2.0,87,0.00,,,0.00,WeatherCatV1.02B3,2013-02-14 09:15:00,
2013-02-14 04:20:00,27.5,24.1,29.95,ESE,113,0.0,3.0,87,0.00,,,0.00,WeatherCatV1.02B3,2013-02-14 09:20:00,
2013-02-14 04:25:00,27.6,24.2,29.95,ESE,116,1.0,1.0,87,0.00,,,0.00,WeatherCatV1.02B3,2013-02-14 09:25:00,
2013-02-14 04:30:00,27.7,24.3,29.95,SE,138,1.0,3.0,87,0.00,,,0.00,WeatherCatV1.02B3,2013-02-14 09:30:00,
2013-02-14 04:35:00,27.9,24.5,29.95,ESE,119,0.0,0.0,87,0.00,,,0.00,WeatherCatV1.02B3,2013-02-14 09:35:00,
2013-02-14 04:40:00,28.0,24.6,29.95,ESE,113,1.0,3.0,87,0.00,,,0.00,WeatherCatV1.02B3,2013-02-14 09:40:00,
2013-02-14 04:45:00,28.0,24.6,29.95,SE,136,0.0,3.0,87,0.00,,,0.00,WeatherCatV1.02B3,2013-02-14 09:45:00,
2013-02-14 04:50:00,27.9,24.5,29.95,SE,134,0.0,3.0,87,0.00,,,0.00,WeatherCatV1.02B3,2013-02-14 09:50:00,
2013-02-14 04:55:00,27.9,24.5,29.95,ESE,113,0.0,5.0,87,0.00,,,0.00,WeatherCatV1.02B3,2013-02-14 09:55:00,
2013-02-14 05:00:00,27.9,24.3,29.95,ESE,119,1.0,3.0,86,0.00,,,0.00,WeatherCatV1.02B3,2013-02-14 10:00:00,
2013-02-14 05:05:00,27.9,24.3,29.95,SE,126,2.0,2.0,86,0.00,,,0.00,WeatherCatV1.02B3,2013-02-14 10:05:00,
2013-02-14 05:10:00,28.0,24.4,29.95,SE,137,0.0,3.0,86,0.00,,,0.00,WeatherCatV1.02B3,2013-02-14 10:10:00,
2013-02-14 05:15:00,28.1,24.7,29.95,SE,133,2.0,3.0,87,0.00,,,0.00,WeatherCatV1.02B3,2013-02-14 10:15:00,
2013-02-14 05:20:00,28.1,24.7,29.95,SE,133,0.0,0.0,87,0.00,,,0.00,WeatherCatV1.02B3,2013-02-14 10:20:00,
2013-02-14 05:25:00,28.2,24.6,29.95,ESE,107,1.0,2.0,86,0.00,,,0.00,WeatherCatV1.02B3,2013-02-14 10:25:00,
2013-02-14 05:30:00,28.4,24.8,29.94,SE,146,0.0,2.0,86,0.00,,,0.00,WeatherCatV1.02B3,2013-02-14 10:30:00,
2013-02-14 05:35:00,28.4,24.8,29.94,SE,126,0.0,0.0,86,0.00,,,0.00,WeatherCatV1.02B3,2013-02-14 10:35:00,
2013-02-14 05:40:00,28.4,24.8,29.94,SE,126,0.0,0.0,86,0.00,,,0.00,WeatherCatV1.02B3,2013-02-14 10:40:00,
2013-02-14 05:45:00,28.5,24.9,29.94,SE,126,0.0,2.0,86,0.00,,,0.00,WeatherCatV1.02B3,2013-02-14 10:45:00,
2013-02-14 05:50:00,28.5,24.9,29.94,SE,126,0.0,0.0,86,0.00,,,0.00,WeatherCatV1.02B3,2013-02-14 10:50:00,
2013-02-14 05:55:00,28.5,24.9,29.94,SE,126,1.0,3.0,86,0.00,,,0.00,WeatherCatV1.02B3,2013-02-14 10:55:00,
2013-02-14 06:00:00,28.6,25.0,29.94,ESE,123,0.0,3.0,86,0.00,,,0.00,WeatherCatV1.02B3,2013-02-14 11:00:00,
2013-02-14 06:05:00,28.5,24.9,29.94,SE,136,2.0,3.0,86,0.00,,,0.00,WeatherCatV1.02B3,2013-02-14 11:05:00,
2013-02-14 06:10:00,28.5,24.9,29.94,SE,134,0.0,4.0,86,0.00,,,0.00,WeatherCatV1.02B3,2013-02-14 11:10:00,
2013-02-14 06:15:00,28.5,24.9,29.94,SE,136,0.0,2.0,86,0.00,,,0.00,WeatherCatV1.02B3,2013-02-14 11:15:00,
2013-02-14 06:20:00,28.7,25.1,29.95,East,98,2.0,3.0,86,0.00,,,0.00,WeatherCatV1.02B3,2013-02-14 11:20:00,
2013-02-14 06:25:00,28.7,25.1,29.95,SE,129,0.0,4.0,86,0.00,,,0.00,WeatherCatV1.02B3,2013-02-14 11:25:00,
2013-02-14 06:30:00,28.7,25.1,29.95,SE,129,3.0,7.0,86,0.00,,,0.00,WeatherCatV1.02B3,2013-02-14 11:30:00,
2013-02-14 06:35:00,28.7,25.1,29.96,SE,140,0.0,1.0,86,0.00,,,0.00,WeatherCatV1.02B3,2013-02-14 11:35:00,
2013-02-14 06:40:00,28.7,25.1,29.96,ESE,113,3.0,4.0,86,0.00,,,0.00,WeatherCatV1.02B3,2013-02-14 11:40:00,
2013-02-14 06:45:00,28.7,25.1,29.96,SE,130,2.0,4.0,86,0.00,,,0.00,WeatherCatV1.02B3,2013-02-14 11:45:00,
2013-02-14 06:50:00,28.8,25.2,29.96,SE,130,1.0,3.0,86,0.00,,,0.00,WeatherCatV1.02B3,2013-02-14 11:50:00,
2013-02-14 06:55:00,28.9,25.2,29.96,SE,133,0.0,2.0,86,0.00,,,0.00,WeatherCatV1.02B3,2013-02-14 11:55:00,
2013-02-14 07:00:00,29.1,25.4,29.96,ESE,112,4.0,7.0,86,0.00,,,0.00,WeatherCatV1.02B3,2013-02-14 12:00:00,
2013-02-14 07:05:00,29.4,25.7,29.96,SE,134,2.0,4.0,86,0.00,,,0.00,WeatherCatV1.02B3,2013-02-14 12:05:00,
2013-02-14 07:10:00,29.7,26.0,29.96,SE,142,2.0,2.0,86,0.00,,,0.00,WeatherCatV1.02B3,2013-02-14 12:10:00,
2013-02-14 07:15:00,29.9,26.2,29.96,ESE,108,2.0,3.0,86,0.00,,,0.00,WeatherCatV1.02B3,2013-02-14 12:15:00,
2013-02-14 07:20:00,30.2,26.5,29.96,ESE,123,0.0,2.0,86,0.00,,,0.00,WeatherCatV1.02B3,2013-02-14 12:20:00,
2013-02-14 07:25:00,30.3,26.6,29.96,SE,134,1.0,1.0,86,0.00,,,0.00,WeatherCatV1.02B3,2013-02-14 12:25:00,
2013-02-14 07:31:00,30.5,26.8,29.96,SE,128,1.0,3.0,86,0.00,,,0.00,WeatherCatV1.02B3,2013-02-14 12:31:00,
2013-02-14 07:36:00,30.6,26.9,29.97,SE,132,2.0,2.0,86,0.00,,,0.00,WeatherCatV1.02B3,2013-02-14 12:36:00,
2013-02-14 07:41:00,30.7,27.0,29.97,SE,132,3.0,3.0,86,0.00,,,0.00,WeatherCatV1.02B3,2013-02-14 12:41:00,
2013-02-14 07:46:00,30.9,27.2,29.97,SE,126,2.0,3.0,86,0.00,,,0.00,WeatherCatV1.02B3,2013-02-14 12:46:00,
2013-02-14 07:51:00,31.0,27.3,29.97,SE,126,3.0,4.0,86,0.00,,,0.00,WeatherCatV1.02B3,2013-02-14 12:51:00,
2013-02-14 07:56:00,31.1,27.1,29.97,SE,139,0.0,6.0,85,0.00,,,0.00,WeatherCatV1.02B3,2013-02-14 12:56:00,
2013-02-14 08:01:00,31.2,27.2,29.97,South,178,3.0,4.0,85,0.00,,,0.00,WeatherCatV1.02B3,2013-02-14 13:01:00,
2013-02-14 08:06:00,31.3,27.3,29.97,SSE,157,0.0,6.0,85,0.00,,,0.00,WeatherCatV1.02B3,2013-02-14 13:06:00,
2013-02-14 08:11:00,31.5,27.5,29.97,ESE,118,3.0,5.0,85,0.00,,,0.00,WeatherCatV1.02B3,2013-02-14 13:11:00,
2013-02-14 08:16:00,31.5,27.5,29.97,SE,134,0.0,5.0,85,0.00,,,0.00,WeatherCatV1.02B3,2013-02-14 13:16:00,
2013-02-14 08:21:00,31.6,27.6,29.97,SE,140,1.0,6.0,85,0.00,,,0.00,WeatherCatV1.02B3,2013-02-14 13:21:00,
2013-02-14 08:26:00,31.7,27.7,29.97,SE,131,2.0,9.0,85,0.00,,,0.00,WeatherCatV1.02B3,2013-02-14 13:26:00,
2013-02-14 08:31:00,31.8,27.8,29.97,SE,139,2.0,5.0,85,0.00,,,0.00,WeatherCatV1.02B3,2013-02-14 13:31:00,
2013-02-14 08:36:00,31.9,27.9,29.97,SE,140,3.0,5.0,85,0.00,,,0.00,WeatherCatV1.02B3,2013-02-14 13:36:00,
2013-02-14 08:41:00,32.1,28.1,29.97,ESE,118,0.0,3.0,85,0.00,,,0.00,WeatherCatV1.02B3,2013-02-14 13:41:00,
2013-02-14 08:46:00,32.2,28.2,29.97,SE,143,1.0,5.0,85,0.00,,,0.00,WeatherCatV1.02B3,2013-02-14 13:46:00,
2013-02-14 08:51:00,32.5,28.5,29.97,ESE,105,1.0,5.0,85,0.00,,,0.00,WeatherCatV1.02B3,2013-02-14 13:51:00,
2013-02-14 08:56:00,32.8,28.8,29.97,SE,128,1.0,4.0,85,0.00,,,0.00,WeatherCatV1.02B3,2013-02-14 13:56:00,
2013-02-14 09:01:00,33.0,29.0,29.97,ESE,119,3.0,6.0,85,0.00,,,0.00,WeatherCatV1.02B3,2013-02-14 14:01:00,
2013-02-14 09:06:00,33.1,29.1,29.97,SSE,149,4.0,5.0,85,0.00,,,0.00,WeatherCatV1.02B3,2013-02-14 14:06:00,
2013-02-14 09:11:00,33.3,29.3,29.97,ESE,123,3.0,4.0,85,0.00,,,0.00,WeatherCatV1.02B3,2013-02-14 14:11:00,
2013-02-14 09:16:00,33.4,29.4,29.97,SE,127,2.0,4.0,85,0.00,,,0.00,WeatherCatV1.02B3,2013-02-14 14:16:00,
2013-02-14 09:21:00,33.5,29.5,29.97,SE,136,1.0,7.0,85,0.00,,,0.00,WeatherCatV1.02B3,2013-02-14 14:21:00,
2013-02-14 09:26:00,33.7,29.7,29.97,SSE,158,4.0,5.0,85,0.00,,,0.00,WeatherCatV1.02B3,2013-02-14 14:26:00,
2013-02-14 09:31:00,33.8,29.8,29.97,East,89,3.0,3.0,85,0.00,,,0.00,WeatherCatV1.02B3,2013-02-14 14:31:00,
2013-02-14 09:36:00,33.9,29.6,29.97,SE,136,0.0,4.0,84,0.00,,,0.00,WeatherCatV1.02B3,2013-02-14 14:36:00,
2013-02-14 09:41:00,34.0,29.7,29.96,SE,138,0.0,4.0,84,0.00,,,0.00,WeatherCatV1.02B3,2013-02-14 14:41:00,
2013-02-14 09:46:00,34.2,29.9,29.97,SSW,204,2.0,11.0,84,0.00,,,0.00,WeatherCatV1.02B3,2013-02-14 14:46:00,
2013-02-14 09:51:00,34.3,30.0,29.96,SE,124,0.0,7.0,84,0.00,,,0.00,WeatherCatV1.02B3,2013-02-14 14:51:00,
2013-02-14 09:56:00,34.5,30.2,29.96,ESE,123,0.0,3.0,84,0.00,,,0.00,WeatherCatV1.02B3,2013-02-14 14:56:00,
2013-02-14 10:01:00,34.8,30.5,29.96,SE,132,0.0,0.0,84,0.00,,,0.00,WeatherCatV1.02B3,2013-02-14 15:01:00,
2013-02-14 10:07:00,35.0,30.7,29.96,SE,134,3.0,5.0,84,0.00,,,0.00,WeatherCatV1.02B3,2013-02-14 15:07:00,
2013-02-14 10:12:00,35.1,30.8,29.96,SSE,161,0.0,7.0,84,0.00,,,0.00,WeatherCatV1.02B3,2013-02-14 15:12:00,
2013-02-14 10:17:00,35.3,31.0,29.96,SE,140,0.0,3.0,84,0.00,,,0.00,WeatherCatV1.02B3,2013-02-14 15:17:00,
2013-02-14 10:22:00,35.4,31.1,29.95,South,172,1.0,7.0,84,0.00,,,0.00,WeatherCatV1.02B3,2013-02-14 15:22:00,
2013-02-14 10:27:00,35.5,31.2,29.95,SE,124,2.0,5.0,84,0.00,,,0.00,WeatherCatV1.02B3,2013-02-14 15:27:00,
2013-02-14 10:32:00,35.7,31.1,29.95,SE,132,2.0,9.0,83,0.00,,,0.00,WeatherCatV1.02B3,2013-02-14 15:32:00,
2013-02-14 10:37:00,36.0,31.3,29.95,South,169,3.0,5.0,83,0.00,,,0.00,WeatherCatV1.02B3,2013-02-14 15:37:00,
2013-02-14 10:42:00,36.2,31.5,29.95,SE,134,0.0,5.0,83,0.00,,,0.00,WeatherCatV1.02B3,2013-02-14 15:42:00,
2013-02-14 10:47:00,36.2,31.5,29.95,ESE,103,4.0,11.0,83,0.00,,,0.00,WeatherCatV1.02B3,2013-02-14 15:47:00,
2013-02-14 10:52:00,36.2,31.5,29.95,ESE,119,5.0,9.0,83,0.00,,,0.00,WeatherCatV1.02B3,2013-02-14 15:52:00,
2013-02-14 10:57:00,36.2,31.5,29.94,SE,143,0.0,2.0,83,0.00,,,0.00,WeatherCatV1.02B3,2013-02-14 15:57:00,
2013-02-14 11:02:00,36.2,31.5,29.95,SSE,161,0.0,5.0,83,0.00,,,0.00,WeatherCatV1.02B3,2013-02-14 16:02:00,
2013-02-14 11:07:00,36.3,31.6,29.94,ESE,113,3.0,6.0,83,0.00,,,0.00,WeatherCatV1.02B3,2013-02-14 16:07:00,
2013-02-14 11:12:00,36.4,31.7,29.94,SE,134,3.0,7.0,83,0.00,,,0.00,WeatherCatV1.02B3,2013-02-14 16:12:00,
2013-02-14 11:17:00,36.5,31.8,29.94,SE,138,3.0,7.0,83,0.00,,,0.00,WeatherCatV1.02B3,2013-02-14 16:17:00,
2013-02-14 11:22:00,36.7,32.0,29.94,SE,131,2.0,10.0,83,0.00,,,0.00,WeatherCatV1.02B3,2013-02-14 16:22:00,
2013-02-14 11:27:00,37.1,32.4,29.94,SE,126,0.0,5.0,83,0.00,,,0.00,WeatherCatV1.02B3,2013-02-14 16:27:00,
2013-02-14 11:32:00,37.3,32.6,29.94,SE,137,5.0,6.0,83,0.00,,,0.00,WeatherCatV1.02B3,2013-02-14 16:32:00,
2013-02-14 11:37:00,37.5,32.5,29.94,SE,126,7.0,7.0,82,0.00,,,0.00,WeatherCatV1.02B3,2013-02-14 16:37:00,
2013-02-14 11:42:00,37.6,32.6,29.93,WSW,240,4.0,5.0,82,0.00,,,0.00,WeatherCatV1.02B3,2013-02-14 16:42:00,
2013-02-14 11:47:00,37.7,32.7,29.93,SE,126,4.0,9.0,82,0.00,,,0.00,WeatherCatV1.02B3,2013-02-14 16:47:00,
2013-02-14 11:52:00,37.9,32.9,29.93,SE,126,3.0,4.0,82,0.00,,,0.00,WeatherCatV1.02B3,2013-02-14 16:52:00,
2013-02-14 11:57:00,38.3,33.0,29.93,East,96,4.0,13.0,81,0.00,,,0.00,WeatherCatV1.02B3,2013-02-14 16:57:00,
2013-02-14 12:02:00,38.7,33.4,29.93,SSE,150,5.0,10.0,81,0.00,,,0.00,WeatherCatV1.02B3,2013-02-14 17:02:00,
2013-02-14 12:07:00,38.6,33.0,29.93,SE,131,3.0,7.0,80,0.00,,,0.00,WeatherCatV1.02B3,2013-02-14 17:07:00,
2013-02-14 12:12:00,38.7,33.4,29.93,ESE,115,6.0,6.0,81,0.00,,,0.00,WeatherCatV1.02B3,2013-02-14 17:12:00,
2013-02-14 12:17:00,38.5,32.9,29.92,ESE,122,5.0,14.0,80,0.00,,,0.00,WeatherCatV1.02B3,2013-02-14 17:17:00,
2013-02-14 12:22:00,38.7,33.1,29.92,SW,223,4.0,5.0,80,0.00,,,0.00,WeatherCatV1.02B3,2013-02-14 17:22:00,
2013-02-14 12:27:00,38.9,33.3,29.92,SE,138,1.0,10.0,80,0.00,,,0.00,WeatherCatV1.02B3,2013-02-14 17:27:00,
2013-02-14 12:32:00,39.1,33.5,29.92,SSE,148,2.0,5.0,80,0.00,,,0.00,WeatherCatV1.02B3,2013-02-14 17:32:00,
2013-02-14 12:37:00,39.2,33.2,29.92,SE,128,3.0,12.0,79,0.00,,,0.00,WeatherCatV1.02B3,2013-02-14 17:37:00,
2013-02-14 12:42:00,39.2,33.2,29.91,East,99,7.0,9.0,79,0.00,,,0.00,WeatherCatV1.02B3,2013-02-14 17:42:00,
2013-02-14 12:47:00,39.4,33.4,29.91,SW,236,0.0,5.0,79,0.00,,,0.00,WeatherCatV1.02B3,2013-02-14 17:47:00,
2013-02-14 12:52:00,39.7,33.7,29.91,SE,125,6.0,7.0,79,0.00,,,0.00,WeatherCatV1.02B3,2013-02-14 17:52:00,
2013-02-14 12:57:00,39.9,33.9,29.91,ESE,119,3.0,11.0,79,0.00,,,0.00,WeatherCatV1.02B3,2013-02-14 17:57:00,
2013-02-14 13:02:00,40.1,33.8,29.90,SE,132,12.0,13.0,78,0.00,,,0.00,WeatherCatV1.02B3,2013-02-14 18:02:00,
2013-02-14 13:07:00,40.4,34.1,29.90,ESE,119,7.0,11.0,78,0.00,,,0.00,WeatherCatV1.02B3,2013-02-14 18:07:00,
2013-02-14 13:12:00,41.0,34.7,29.90,SE,133,3.0,7.0,78,0.00,,,0.00,WeatherCatV1.02B3,2013-02-14 18:12:00,
2013-02-14 13:17:00,41.1,34.4,29.90,East,101,3.0,5.0,77,0.00,,,0.00,WeatherCatV1.02B3,2013-02-14 18:17:00,
2013-02-14 13:22:00,41.1,34.4,29.90,SSE,161,6.0,12.0,77,0.00,,,0.00,WeatherCatV1.02B3,2013-02-14 18:22:00,
2013-02-14 13:27:00,40.9,34.3,29.90,SSE,159,0.0,7.0,77,0.00,,,0.00,WeatherCatV1.02B3,2013-02-14 18:27:00,
2013-02-14 13:32:00,40.8,34.2,29.90,East,96,6.0,10.0,77,0.00,,,0.00,WeatherCatV1.02B3,2013-02-14 18:32:00,
2013-02-14 13:37:00,40.8,34.2,29.90,SSE,149,0.0,7.0,77,0.00,,,0.00,WeatherCatV1.02B3,2013-02-14 18:37:00,
2013-02-14 13:42:00,41.0,34.7,29.89,NW,314,2.0,6.0,78,0.00,,,0.00,WeatherCatV1.02B3,2013-02-14 18:42:00,
2013-02-14 13:47:00,41.1,34.4,29.89,SSE,152,4.0,7.0,77,0.00,,,0.00,WeatherCatV1.02B3,2013-02-14 18:47:00,
2013-02-14 13:52:00,41.1,34.4,29.89,SSE,167,0.0,6.0,77,0.00,,,0.00,WeatherCatV1.02B3,2013-02-14 18:52:00,
2013-02-14 13:57:00,41.2,34.5,29.89,SSW,198,9.0,9.0,77,0.00,,,0.00,WeatherCatV1.02B3,2013-02-14 18:57:00,
2013-02-14 14:02:00,41.2,34.5,29.89,ESE,103,1.0,3.0,77,0.00,,,0.00,WeatherCatV1.02B3,2013-02-14 19:02:00,
2013-02-14 14:07:00,41.2,34.5,29.89,SSE,161,0.0,4.0,77,0.00,,,0.00,WeatherCatV1.02B3,2013-02-14 19:07:00,
2013-02-14 14:12:00,41.4,35.1,29.89,SW,214,2.0,7.0,78,0.00,,,0.00,WeatherCatV1.02B3,2013-02-14 19:12:00,
2013-02-14 14:17:00,41.2,34.5,29.89,SW,221,3.0,9.0,77,0.00,,,0.00,WeatherCatV1.02B3,2013-02-14 19:17:00,
2013-02-14 14:22:00,41.0,34.4,29.89,ESE,114,5.0,13.0,77,0.00,,,0.00,WeatherCatV1.02B3,2013-02-14 19:22:00,
2013-02-14 14:27:00,40.9,34.6,29.89,ESE,122,2.0,5.0,78,0.00,,,0.00,WeatherCatV1.02B3,2013-02-14 19:27:00,
2013-02-14 14:32:00,40.9,34.6,29.89,SSE,150,0.0,9.0,78,0.00,,,0.00,WeatherCatV1.02B3,2013-02-14 19:32:00,
2013-02-14 14:37:00,40.7,34.7,29.89,SE,134,0.0,5.0,79,0.00,,,0.00,WeatherCatV1.02B3,2013-02-14 19:37:00,
2013-02-14 14:42:00,40.6,34.9,29.89,SSW,200,1.0,6.0,80,0.00,,,0.00,WeatherCatV1.02B3,2013-02-14 19:42:00,
2013-02-14 14:47:00,40.6,35.2,29.89,SE,128,0.0,10.0,81,0.00,,,0.00,WeatherCatV1.02B3,2013-02-14 19:47:00,
2013-02-14 14:52:00,40.6,35.2,29.89,South,188,4.0,5.0,81,0.00,,,0.00,WeatherCatV1.02B3,2013-02-14 19:52:00,
2013-02-14 14:57:00,40.4,35.0,29.89,SSW,197,6.0,10.0,81,0.00,,,0.00,WeatherCatV1.02B3,2013-02-14 19:57:00,
2013-02-14 15:02:00,40.3,34.9,29.89,South,172,0.0,5.0,81,0.00,,,0.00,WeatherCatV1.02B3,2013-02-14 20:02:00,
2013-02-14 15:07:00,40.2,34.8,29.89,SE,140,0.0,7.0,81,0.00,,,0.00,WeatherCatV1.02B3,2013-02-14 20:07:00,
2013-02-14 15:12:00,40.2,35.2,29.89,SSE,167,0.0,0.0,82,0.00,,,0.00,WeatherCatV1.02B3,2013-02-14 20:12:00,
2013-02-14 15:17:00,40.1,35.1,29.89,SE,129,3.0,8.0,82,0.00,,,0.00,WeatherCatV1.02B3,2013-02-14 20:17:00,
2013-02-14 15:22:00,40.0,35.3,29.89,ESE,121,5.0,6.0,83,0.00,,,0.00,WeatherCatV1.02B3,2013-02-14 20:22:00,
2013-02-14 15:27:00,40.0,35.3,29.88,SE,145,3.0,7.0,83,0.00,,,0.00,WeatherCatV1.02B3,2013-02-14 20:27:00,
2013-02-14 15:32:00,40.2,35.5,29.88,SE,138,2.0,4.0,83,0.00,,,0.00,WeatherCatV1.02B3,2013-02-14 20:32:00,
2013-02-14 15:37:00,40.3,35.2,29.87,ESE,117,3.0,6.0,82,0.00,,,0.00,WeatherCatV1.02B3,2013-02-14 20:37:00,
2013-02-14 15:42:00,40.3,35.2,29.88,ESE,119,3.0,6.0,82,0.00,,,0.00,WeatherCatV1.02B3,2013-02-14 20:42:00,
2013-02-14 15:47:00,40.3,35.2,29.88,ESE,117,5.0,6.0,82,0.00,,,0.00,WeatherCatV1.02B3,2013-02-14 20:47:00,
2013-02-14 15:52:00,40.2,35.2,29.88,SE,128,3.0,8.0,82,0.00,,,0.00,WeatherCatV1.02B3,2013-02-14 20:52:00,
2013-02-14 15:57:00,40.1,35.1,29.88,SE,134,2.0,10.0,82,0.00,,,0.00,WeatherCatV1.02B3,2013-02-14 20:57:00,
2013-02-14 16:02:00,40.1,35.1,29.87,ESE,115,4.0,5.0,82,0.00,,,0.00,WeatherCatV1.02B3,2013-02-14 21:02:00,
2013-02-14 16:07:00,40.0,35.0,29.87,East,86,6.0,6.0,82,0.00,,,0.00,WeatherCatV1.02B3,2013-02-14 21:07:00,
2013-02-14 16:12:00,39.9,34.9,29.87,SE,140,4.0,14.0,82,0.00,,,0.00,WeatherCatV1.02B3,2013-02-14 21:12:00,
2013-02-14 16:17:00,39.9,34.9,29.87,SE,132,3.0,10.0,82,0.00,,,0.00,WeatherCatV1.02B3,2013-02-14 21:17:00,
2013-02-14 16:22:00,39.9,34.9,29.87,ESE,116,0.0,3.0,82,0.00,,,0.00,WeatherCatV1.02B3,2013-02-14 21:22:00,
2013-02-14 16:27:00,39.8,34.8,29.87,SE,134,0.0,2.0,82,0.00,,,0.00,WeatherCatV1.02B3,2013-02-14 21:27:00,
2013-02-14 16:32:00,39.8,34.8,29.87,ESE,107,5.0,14.0,82,0.00,,,0.00,WeatherCatV1.02B3,2013-02-14 21:32:00,
2013-02-14 16:37:00,39.8,34.8,29.88,ESE,111,2.0,5.0,82,0.00,,,0.00,WeatherCatV1.02B3,2013-02-14 21:37:00,
2013-02-14 16:42:00,39.7,34.7,29.88,ENE,70,2.0,10.0,82,0.00,,,0.00,WeatherCatV1.02B3,2013-02-14 21:42:00,
2013-02-14 16:47:00,39.7,34.7,29.87,ESE,109,1.0,7.0,82,0.00,,,0.00,WeatherCatV1.02B3,2013-02-14 21:47:00,
2013-02-14 16:52:00,39.6,34.6,29.88,NE,45,0.0,17.0,82,0.00,,,0.00,WeatherCatV1.02B3,2013-02-14 21:52:00,
2013-02-14 16:57:00,39.6,34.6,29.88,South,177,0.0,12.0,82,0.00,,,0.00,WeatherCatV1.02B3,2013-02-14 21:57:00,
2013-02-14 17:02:00,39.7,34.7,29.88,ESE,113,3.0,6.0,82,0.00,,,0.00,WeatherCatV1.02B3,2013-02-14 22:02:00,
2013-02-14 17:07:00,39.6,34.6,29.88,South,186,0.0,9.0,82,0.00,,,0.00,WeatherCatV1.02B3,2013-02-14 22:07:00,
2013-02-14 17:12:00,39.4,34.7,29.88,SSW,193,0.0,10.0,83,0.00,,,0.00,WeatherCatV1.02B3,2013-02-14 22:12:00,
2013-02-14 17:17:00,39.1,34.7,29.88,ESE,110,3.0,6.0,84,0.00,,,0.00,WeatherCatV1.02B3,2013-02-14 22:17:00,
2013-02-14 17:22:00,38.8,34.4,29.88,South,191,6.0,7.0,84,0.00,,,0.00,WeatherCatV1.02B3,2013-02-14 22:22:00,
2013-02-14 17:27:00,38.6,34.5,29.88,ESE,113,2.0,4.0,85,0.00,,,0.00,WeatherCatV1.02B3,2013-02-14 22:27:00,
2013-02-14 17:32:00,38.4,34.3,29.88,SE,146,2.0,5.0,85,0.00,,,0.00,WeatherCatV1.02B3,2013-02-14 22:32:00,
2013-02-14 17:37:00,38.3,34.5,29.88,SSE,160,0.0,5.0,86,0.00,,,0.00,WeatherCatV1.02B3,2013-02-14 22:37:00,
2013-02-14 17:42:00,38.1,34.3,29.88,SSE,156,2.0,6.0,86,0.00,,,0.00,WeatherCatV1.02B3,2013-02-14 22:42:00,
2013-02-14 17:47:00,38.1,34.6,29.88,SE,136,4.0,11.0,87,0.00,,,0.01,WeatherCatV1.02B3,2013-02-14 22:47:00,
2013-02-14 17:52:00,38.0,34.5,29.89,SSE,162,0.0,3.0,87,0.00,,,0.01,WeatherCatV1.02B3,2013-02-14 22:52:00,
2013-02-14 17:57:00,38.0,34.5,29.89,SSW,204,4.0,5.0,87,0.00,,,0.01,WeatherCatV1.02B3,2013-02-14 22:57:00,
2013-02-14 18:02:00,38.0,34.5,29.90,SSW,211,0.0,1.0,87,0.00,,,0.01,WeatherCatV1.02B3,2013-02-14 23:02:00,
2013-02-14 18:07:00,37.9,34.4,29.91,SSE,155,0.0,1.0,87,0.00,,,0.01,WeatherCatV1.02B3,2013-02-14 23:07:00,
2013-02-14 18:12:00,37.9,34.4,29.91,SSW,209,4.0,4.0,87,0.00,,,0.01,WeatherCatV1.02B3,2013-02-14 23:12:00,
2013-02-14 18:17:00,37.9,34.4,29.91,South,191,5.0,6.0,87,0.00,,,0.01,WeatherCatV1.02B3,2013-02-14 23:17:00,
2013-02-14 18:22:00,37.9,34.4,29.91,SE,130,4.0,5.0,87,0.00,,,0.01,WeatherCatV1.02B3,2013-02-14 23:22:00,
2013-02-14 18:27:00,37.9,34.4,29.91,ESE,111,2.0,4.0,87,0.00,,,0.01,WeatherCatV1.02B3,2013-02-14 23:27:00,
2013-02-14 18:32:00,37.9,34.4,29.90,SE,129,1.0,2.0,87,0.00,,,0.01,WeatherCatV1.02B3,2013-02-14 23:32:00,
2013-02-14 18:37:00,37.9,34.4,29.90,SE,135,1.0,10.0,87,0.00,,,0.01,WeatherCatV1.02B3,2013-02-14 23:37:00,
2013-02-14 18:42:00,37.9,34.4,29.90,South,169,0.0,3.0,87,0.00,,,0.01,WeatherCatV1.02B3,2013-02-14 23:42:00,
2013-02-14 18:47:00,37.8,34.3,29.90,SE,129,0.0,4.0,87,0.00,,,0.01,WeatherCatV1.02B3,2013-02-14 23:47:00,
2013-02-14 18:52:00,37.8,34.3,29.90,SSE,153,0.0,9.0,87,0.00,,,0.01,WeatherCatV1.02B3,2013-02-14 23:52:00,
2013-02-14 18:57:00,37.8,34.3,29.90,SE,126,0.0,6.0,87,0.00,,,0.01,WeatherCatV1.02B3,2013-02-14 23:57:00,
2013-02-14 19:03:00,37.8,34.3,29.89,ESE,117,1.0,7.0,87,0.00,,,0.01,WeatherCatV1.02B3,2013-02-15 00:03:00,
2013-02-14 19:08:00,37.8,34.3,29.89,SE,137,0.0,4.0,87,0.00,,,0.01,WeatherCatV1.02B3,2013-02-15 00:08:00,
2013-02-14 19:13:00,37.9,34.4,29.90,SSE,150,0.0,6.0,87,0.00,,,0.01,WeatherCatV1.02B3,2013-02-15 00:13:00,
2013-02-14 19:18:00,37.9,34.4,29.90,SE,146,0.0,3.0,87,0.00,,,0.01,WeatherCatV1.02B3,2013-02-15 00:18:00,
2013-02-14 19:23:00,38.0,34.5,29.90,SW,232,0.0,6.0,87,0.00,,,0.01,WeatherCatV1.02B3,2013-02-15 00:23:00,
2013-02-14 19:28:00,38.0,34.5,29.90,SSW,209,4.0,4.0,87,0.00,,,0.01,WeatherCatV1.02B3,2013-02-15 00:28:00,
2013-02-14 19:33:00,38.0,34.5,29.90,ESE,123,1.0,4.0,87,0.00,,,0.01,WeatherCatV1.02B3,2013-02-15 00:33:00,
2013-02-14 19:38:00,38.2,34.7,29.90,SSE,157,0.0,5.0,87,0.00,,,0.01,WeatherCatV1.02B3,2013-02-15 00:38:00,
2013-02-14 19:43:00,38.3,34.8,29.90,SE,129,0.0,1.0,87,0.00,,,0.01,WeatherCatV1.02B3,2013-02-15 00:43:00,
2013-02-14 19:48:00,38.4,34.6,29.90,East,94,3.0,3.0,86,0.00,,,0.01,WeatherCatV1.02B3,2013-02-15 00:48:00,
2013-02-14 19:53:00,38.6,35.1,29.90,SSE,150,1.0,7.0,87,0.00,,,0.01,WeatherCatV1.02B3,2013-02-15 00:53:00,
2013-02-14 19:58:00,38.7,34.9,29.89,SE,126,3.0,8.0,86,0.00,,,0.01,WeatherCatV1.02B3,2013-02-15 00:58:00,
2013-02-14 20:03:00,38.7,34.9,29.90,SSE,167,2.0,5.0,86,0.00,,,0.01,WeatherCatV1.02B3,2013-02-15 01:03:00,
2013-02-14 20:08:00,38.7,34.9,29.90,SE,138,0.0,5.0,86,0.00,,,0.01,WeatherCatV1.02B3,2013-02-15 01:08:00,
2013-02-14 20:13:00,38.9,35.1,29.89,ESE,109,4.0,4.0,86,0.00,,,0.01,WeatherCatV1.02B3,2013-02-15 01:13:00,
2013-02-14 20:18:00,39.0,35.2,29.89,SSW,196,0.0,3.0,86,0.00,,,0.01,WeatherCatV1.02B3,2013-02-15 01:18:00,
2013-02-14 20:23:00,39.0,34.9,29.89,South,182,0.0,0.0,85,0.00,,,0.01,WeatherCatV1.02B3,2013-02-15 01:23:00,
2013-02-14 20:28:00,39.0,35.2,29.89,South,190,0.0,4.0,86,0.00,,,0.01,WeatherCatV1.02B3,2013-02-15 01:28:00,
2013-02-14 20:33:00,39.3,35.5,29.90,SSW,207,3.0,4.0,86,0.00,,,0.01,WeatherCatV1.02B3,2013-02-15 01:33:00,
2013-02-14 20:38:00,39.4,35.3,29.90,SW,219,2.0,6.0,85,0.00,,,0.01,WeatherCatV1.02B3,2013-02-15 01:38:00,
2013-02-14 20:43:00,39.4,35.3,29.90,SSW,197,0.0,6.0,85,0.00,,,0.01,WeatherCatV1.02B3,2013-02-15 01:43:00,
2013-02-14 20:48:00,39.5,35.4,29.90,SW,225,2.0,5.0,85,0.00,,,0.01,WeatherCatV1.02B3,2013-02-15 01:48:00,
2013-02-14 20:53:00,39.6,35.5,29.90,South,187,1.0,5.0,85,0.00,,,0.01,WeatherCatV1.02B3,2013-02-15 01:53:00,
2013-02-14 20:58:00,39.9,35.8,29.90,SSW,209,4.0,12.0,85,0.00,,,0.01,WeatherCatV1.02B3,2013-02-15 01:58:00,
2013-02-14 21:03:00,40.6,36.2,29.90,SSW,211,7.0,7.0,84,0.00,,,0.01,WeatherCatV1.02B3,2013-02-15 02:03:00,
2013-02-14 21:08:00,40.8,35.7,29.91,WSW,252,2.0,4.0,82,0.00,,,0.01,WeatherCatV1.02B3,2013-02-15 02:08:00,
2013-02-14 21:13:00,41.4,35.7,29.91,WSW,244,14.0,14.0,80,0.00,,,0.01,WeatherCatV1.02B3,2013-02-15 02:13:00,
2013-02-14 21:18:00,41.7,34.7,29.91,WSW,241,10.0,17.0,76,0.00,,,0.01,WeatherCatV1.02B3,2013-02-15 02:18:00,
2013-02-14 21:23:00,41.6,33.6,29.91,WSW,253,7.0,17.0,73,0.00,,,0.01,WeatherCatV1.02B3,2013-02-15 02:23:00,
2013-02-14 21:28:00,41.5,33.2,29.92,SW,236,9.0,11.0,72,0.00,,,0.01,WeatherCatV1.02B3,2013-02-15 02:28:00,
2013-02-14 21:33:00,41.4,32.7,29.91,SW,230,7.0,15.0,71,0.00,,,0.01,WeatherCatV1.02B3,2013-02-15 02:33:00,
2013-02-14 21:38:00,41.4,32.4,29.92,WSW,254,3.0,7.0,70,0.00,,,0.01,WeatherCatV1.02B3,2013-02-15 02:38:00,
2013-02-14 21:43:00,41.2,32.5,29.92,WSW,244,5.0,10.0,71,0.00,,,0.01,WeatherCatV1.02B3,2013-02-15 02:43:00,
2013-02-14 21:48:00,41.1,32.4,29.91,SSW,202,4.0,12.0,71,0.00,,,0.01,WeatherCatV1.02B3,2013-02-15 02:48:00,
2013-02-14 21:53:00,40.9,32.6,29.92,SW,221,7.0,14.0,72,0.00,,,0.01,WeatherCatV1.02B3,2013-02-15 02:53:00,
2013-02-14 21:58:00,40.8,32.5,29.92,WSW,241,14.0,15.0,72,0.00,,,0.01,WeatherCatV1.02B3,2013-02-15 02:58:00,
2013-02-14 22:03:00,40.7,32.4,29.92,South,178,5.0,16.0,72,0.00,,,0.01,WeatherCatV1.02B3,2013-02-15 03:03:00,
2013-02-14 22:08:00,40.7,32.0,29.92,WSW,240,6.0,15.0,71,0.00,,,0.01,WeatherCatV1.02B3,2013-02-15 03:08:00,
2013-02-14 22:13:00,40.6,31.9,29.92,WSW,246,5.0,10.0,71,0.00,,,0.01,WeatherCatV1.02B3,2013-02-15 03:13:00,
2013-02-14 22:18:00,40.5,31.5,29.92,SW,229,19.0,23.0,70,0.00,,,0.01,WeatherCatV1.02B3,2013-02-15 03:18:00,
2013-02-14 22:23:00,40.6,31.6,29.93,SW,217,16.0,18.0,70,0.00,,,0.01,WeatherCatV1.02B3,2013-02-15 03:23:00,
2013-02-14 22:28:00,40.6,31.2,29.92,SW,216,9.0,20.0,69,0.00,,,0.01,WeatherCatV1.02B3,2013-02-15 03:28:00,
2013-02-14 22:33:00,40.5,31.5,29.92,SW,223,5.0,7.0,70,0.00,,,0.01,WeatherCatV1.02B3,2013-02-15 03:33:00,
2013-02-14 22:38:00,40.4,31.4,29.92,SW,229,3.0,13.0,70,0.00,,,0.01,WeatherCatV1.02B3,2013-02-15 03:38:00,
2013-02-14 22:43:00,40.4,31.4,29.93,SW,230,5.0,13.0,70,0.00,,,0.01,WeatherCatV1.02B3,2013-02-15 03:43:00,
2013-02-14 22:48:00,40.5,31.1,29.92,SW,226,4.0,15.0,69,0.00,,,0.01,WeatherCatV1.02B3,2013-02-15 03:48:00,
2013-02-14 22:53:00,40.5,31.1,29.92,WSW,241,6.0,13.0,69,0.00,,,0.01,WeatherCatV1.02B3,2013-02-15 03:53:00,
2013-02-14 22:58:00,40.4,31.4,29.92,SSW,213,5.0,6.0,70,0.00,,,0.01,WeatherCatV1.02B3,2013-02-15 03:58:00,
2013-02-14 23:03:00,40.4,31.4,29.92,WSW,238,5.0,9.0,70,0.00,,,0.01,WeatherCatV1.02B3,2013-02-15 04:03:00,
2013-02-14 23:08:00,40.4,31.0,29.92,SSW,203,6.0,16.0,69,0.00,,,0.01,WeatherCatV1.02B3,2013-02-15 04:08:00,
2013-02-14 23:13:00,40.4,31.4,29.93,SW,218,7.0,13.0,70,0.00,,,0.01,WeatherCatV1.02B3,2013-02-15 04:13:00,
2013-02-14 23:18:00,40.3,31.3,29.92,SSW,210,4.0,14.0,70,0.00,,,0.01,WeatherCatV1.02B3,2013-02-15 04:18:00,
2013-02-14 23:23:00,40.4,31.0,29.92,West,263,22.0,22.0,69,0.00,,,0.01,WeatherCatV1.02B3,2013-02-15 04:23:00,
2013-02-14 23:28:00,40.4,31.0,29.92,WSW,246,6.0,12.0,69,0.00,,,0.01,WeatherCatV1.02B3,2013-02-15 04:28:00,
2013-02-14 23:33:00,40.3,31.3,29.92,SSW,203,5.0,9.0,70,0.00,,,0.01,WeatherCatV1.02B3,2013-02-15 04:33:00,
2013-02-14 23:38:00,40.3,31.3,29.92,WSW,247,11.0,16.0,70,0.00,,,0.01,WeatherCatV1.02B3,2013-02-15 04:38:00,
2013-02-14 23:43:00,40.3,31.3,29.93,WSW,257,5.0,9.0,70,0.00,,,0.01,WeatherCatV1.02B3,2013-02-15 04:43:00,
2013-02-14 23:48:00,40.2,31.2,29.93,WSW,238,10.0,13.0,70,0.00,,,0.01,WeatherCatV1.02B3,2013-02-15 04:48:00,
2013-02-14 23:53:00,40.2,31.2,29.93,SSW,211,9.0,10.0,70,0.00,,,0.01,WeatherCatV1.02B3,2013-02-15 04:53:00,
2013-02-14 23:58:00,40.1,31.1,29.93,SW,214,12.0,12.0,70,0.00,,,0.01,WeatherCatV1.02B3,2013-02-15 04:58:00,